Time;durP1;ratioP1;P1;durP2;ratioP2;P2;SDS_P1;SDS_P2;PMS_P1;PMS_P2;Temp;Humidity;BMP_temperature;BMP_pressure;BME280_temperature;BME280_humidity;BME280_pressure;Samples;Min_cycle;Max_cycle;Signal;HPM_P1;HPM_P2
2021/07/17 00:01:06;;;;;;;18.10;15.20;;;;;;;;;;762831;183;817030;-77
2021/07/17 00:03:32;;;;;;;23.47;17.60;;;;;;;;;;759297;183;919249;-77
2021/07/17 00:05:58;;;;;;;20.90;17.10;;;;;;;;;;763610;182;919627;-77
2021/07/17 00:08:24;;;;;;;19.33;14.30;;;;;;;;;;763281;183;918770;-77
2021/07/17 00:10:49;;;;;;;20.40;14.77;;;;;;;;;;761091;183;918311;-77
2021/07/17 00:13:16;;;;;;;23.10;17.27;;;;;;;;;;764413;183;919408;-77
2021/07/17 00:15:42;;;;;;;19.30;16.20;;;;;;;;;;760751;183;919101;-77
2021/07/17 00:18:08;;;;;;;22.67;16.80;;;;;;;;;;761927;182;919433;-78
2021/07/17 00:20:34;;;;;;;27.80;18.90;;;;;;;;;;761939;182;918525;-76
2021/07/17 00:22:59;;;;;;;30.67;20.57;;;;;;;;;;768223;182;918381;-77
2021/07/17 00:25:25;;;;;;;17.83;15.70;;;;;;;;;;757468;182;1753835;-77
2021/07/17 00:27:51;;;;;;;26.30;17.40;;;;;;;;;;760666;182;918835;-76
2021/07/17 00:30:17;;;;;;;25.40;18.97;;;;;;;;;;768864;180;893741;-77
2021/07/17 00:32:43;;;;;;;28.93;17.47;;;;;;;;;;761517;182;920432;-76
2021/07/17 00:35:09;;;;;;;25.43;18.20;;;;;;;;;;760955;183;919171;-77
2021/07/17 00:37:35;;;;;;;25.43;16.73;;;;;;;;;;766785;182;916883;-77
2021/07/17 00:40:01;;;;;;;22.60;16.60;;;;;;;;;;761223;183;917701;-77
2021/07/17 00:42:26;;;;;;;26.63;16.40;;;;;;;;;;760065;183;816750;-77
2021/07/17 00:44:52;;;;;;;25.13;16.67;;;;;;;;;;762345;183;910064;-76
2021/07/17 00:47:18;;;;;;;23.00;17.10;;;;;;;;;;758469;183;918107;-77
2021/07/17 00:49:44;;;;;;;25.67;18.57;;;;;;;;;;758981;183;918792;-77
2021/07/17 00:52:10;;;;;;;31.90;20.17;;;;;;;;;;762087;183;919578;-77
2021/07/17 00:54:36;;;;;;;32.57;20.90;;;;;;;;;;769046;183;712659;-77
2021/07/17 00:57:02;;;;;;;28.17;23.17;;;;;;;;;;765624;183;918383;-75
2021/07/17 00:59:27;;;;;;;32.27;23.23;;;;;;;;;;760925;183;909685;-76
2021/07/17 01:01:53;;;;;;;36.00;24.37;;;;;;;;;;765813;183;916231;-76
2021/07/17 01:04:19;;;;;;;37.77;25.43;;;;;;;;;;759943;183;915837;-77
2021/07/17 01:06:45;;;;;;;39.03;27.93;;;;;;;;;;762205;183;812762;-76
2021/07/17 01:09:11;;;;;;;41.67;26.63;;;;;;;;;;759207;184;914560;-76
2021/07/17 01:11:37;;;;;;;36.73;27.13;;;;;;;;;;761051;183;914565;-77
2021/07/17 01:14:02;;;;;;;35.00;26.85;;;;;;;;;;758153;184;919381;-77
2021/07/17 01:16:28;;;;;;;50.97;28.50;;;;;;;;;;759972;183;919921;-78
2021/07/17 01:18:54;;;;;;;42.30;30.60;;;;;;;;;;760047;183;919076;-77
2021/07/17 01:21:20;;;;;;;41.17;29.97;;;;;;;;;;759872;183;918712;-78
2021/07/17 01:23:46;;;;;;;42.70;29.17;;;;;;;;;;759716;183;919340;-77
2021/07/17 01:26:12;;;;;;;43.87;27.27;;;;;;;;;;766794;180;816993;-79
2021/07/17 01:28:38;;;;;;;50.20;25.47;;;;;;;;;;760844;182;1019853;-79
2021/07/17 01:31:04;;;;;;;43.30;28.37;;;;;;;;;;762327;182;925051;-79
2021/07/17 01:33:30;;;;;;;43.87;24.77;;;;;;;;;;767509;182;919781;-78
2021/07/17 01:35:56;;;;;;;37.00;24.65;;;;;;;;;;760760;182;919840;-75
2021/07/17 01:38:22;;;;;;;34.00;24.10;;;;;;;;;;759501;183;918908;-76
2021/07/17 01:40:48;;;;;;;34.43;24.27;;;;;;;;;;757382;183;918672;-76
2021/07/17 01:43:13;;;;;;;31.00;23.73;;;;;;;;;;761054;183;916147;-76
2021/07/17 01:45:39;;;;;;;35.17;23.80;;;;;;;;;;764795;182;812906;-77
2021/07/17 01:48:05;;;;;;;33.70;22.98;;;;;;;;;;761542;183;899341;-76
2021/07/17 01:50:31;;;;;;;30.97;22.20;;;;;;;;;;768306;183;611331;-76
2021/07/17 01:52:57;;;;;;;38.23;24.00;;;;;;;;;;764491;183;914812;-76
2021/07/17 01:55:23;;;;;;;29.73;23.50;;;;;;;;;;760857;182;727787;-78
2021/07/17 01:57:49;;;;;;;36.93;23.40;;;;;;;;;;765799;183;1021556;-77
2021/07/17 02:00:15;;;;;;;32.50;23.23;;;;;;;;;;759992;180;1021486;-78
2021/07/17 02:02:41;;;;;;;28.27;22.43;;;;;;;;;;761804;183;919115;-78
2021/07/17 02:05:07;;;;;;;31.50;22.50;;;;;;;;;;768048;183;920763;-78
2021/07/17 02:07:33;;;;;;;24.80;20.50;;;;;;;;;;764805;183;623758;-78
2021/07/17 02:09:58;;;;;;;27.13;21.07;;;;;;;;;;760145;183;918554;-78
2021/07/17 02:12:24;;;;;;;29.57;21.77;;;;;;;;;;760308;183;919577;-78
2021/07/17 02:14:52;;;;;;;27.80;21.10;;;;;;;;;;766700;183;920928;-78
2021/07/17 02:17:16;;;;;;;27.93;20.63;;;;;;;;;;765011;183;817336;-78
2021/07/17 02:19:42;;;;;;;29.67;21.47;;;;;;;;;;761557;183;918283;-78
2021/07/17 02:22:08;;;;;;;31.73;21.07;;;;;;;;;;765459;183;916917;-78
2021/07/17 02:24:33;;;;;;;32.00;21.10;;;;;;;;;;759444;183;918453;-78
2021/07/17 02:26:59;;;;;;;28.20;20.88;;;;;;;;;;763241;183;942836;-78
2021/07/17 02:29:25;;;;;;;33.50;22.73;;;;;;;;;;764507;183;874154;-77
2021/07/17 02:31:51;;;;;;;29.80;22.50;;;;;;;;;;759598;182;919128;-78
2021/07/17 02:34:17;;;;;;;43.00;23.33;;;;;;;;;;761170;183;817103;-78
2021/07/17 02:36:43;;;;;;;34.22;22.30;;;;;;;;;;761308;183;898447;-78
2021/07/17 02:39:08;;;;;;;36.63;23.53;;;;;;;;;;759292;183;814053;-77
2021/07/17 02:41:34;;;;;;;35.73;22.37;;;;;;;;;;761678;184;813646;-78
2021/07/17 02:44:00;;;;;;;30.27;22.53;;;;;;;;;;761537;182;1017734;-79
2021/07/17 02:46:26;;;;;;;32.63;23.03;;;;;;;;;;768190;182;914126;-78
2021/07/17 02:48:52;;;;;;;29.60;22.20;;;;;;;;;;758305;182;919290;-76
2021/07/17 02:51:18;;;;;;;36.20;22.13;;;;;;;;;;760496;182;915355;-77
2021/07/17 02:53:43;;;;;;;31.43;23.77;;;;;;;;;;766455;182;915379;-77
2021/07/17 02:56:09;;;;;;;38.53;23.73;;;;;;;;;;762927;182;954243;-78
2021/07/17 02:58:35;;;;;;;33.83;21.77;;;;;;;;;;762759;182;919015;-76
2021/07/17 03:01:01;;;;;;;32.63;23.00;;;;;;;;;;766775;180;918858;-77
2021/07/17 03:03:27;;;;;;;34.53;23.27;;;;;;;;;;760902;183;919217;-77
2021/07/17 03:05:53;;;;;;;28.83;20.70;;;;;;;;;;762155;181;919077;-77
2021/07/17 03:08:22;;;;;;;30.77;20.93;;;;;;;;;;761843;183;917564;-77
2021/07/17 03:10:45;;;;;;;31.80;21.87;;;;;;;;;;766799;183;918029;-77
2021/07/17 03:13:11;;;;;;;31.77;22.13;;;;;;;;;;759579;183;918793;-75
2021/07/17 03:15:37;;;;;;;38.63;24.87;;;;;;;;;;759246;183;918550;-78
2021/07/17 03:18:03;;;;;;;33.10;23.60;;;;;;;;;;768433;183;920082;-77
2021/07/17 03:20:29;;;;;;;36.33;23.00;;;;;;;;;;759200;183;920306;-76
2021/07/17 03:22:54;;;;;;;33.20;23.60;;;;;;;;;;758381;183;1021559;-77
2021/07/17 03:25:20;;;;;;;42.43;26.30;;;;;;;;;;765570;183;915513;-79
2021/07/17 03:27:46;;;;;;;28.17;23.87;;;;;;;;;;762967;183;919991;-78
2021/07/17 03:30:12;;;;;;;32.37;23.77;;;;;;;;;;763616;183;815777;-78
2021/07/17 03:32:38;;;;;;;33.37;22.70;;;;;;;;;;760002;184;918739;-77
2021/07/17 03:35:04;;;;;;;34.60;23.67;;;;;;;;;;759955;183;816871;-77
2021/07/17 03:37:30;;;;;;;31.33;22.07;;;;;;;;;;758609;183;1030940;-78
2021/07/17 03:39:56;;;;;;;27.33;21.43;;;;;;;;;;759524;183;919789;-76
2021/07/17 03:42:22;;;;;;;33.03;22.40;;;;;;;;;;765040;183;919493;-77
2021/07/17 03:44:48;;;;;;;34.10;21.20;;;;;;;;;;760873;183;918938;-77
2021/07/17 03:47:14;;;;;;;29.12;20.67;;;;;;;;;;760663;183;1021431;-76
2021/07/17 03:49:39;;;;;;;26.77;20.43;;;;;;;;;;764953;183;918126;-78
2021/07/17 03:52:05;;;;;;;29.83;20.27;;;;;;;;;;760721;181;1002948;-79
2021/07/17 03:54:31;;;;;;;28.13;20.23;;;;;;;;;;760080;183;919797;-77
2021/07/17 03:56:57;;;;;;;24.40;19.40;;;;;;;;;;768160;182;918547;-78
2021/07/17 03:59:23;;;;;;;27.70;20.87;;;;;;;;;;762003;182;919462;-74
2021/07/17 04:01:51;;;;;;;27.17;20.43;;;;;;;;;;758909;183;918398;-77
2021/07/17 04:04:15;;;;;;;26.33;19.50;;;;;;;;;;760802;182;919731;-76
2021/07/17 04:06:41;;;;;;;31.27;19.40;;;;;;;;;;767751;180;816200;-77
2021/07/17 04:09:07;;;;;;;23.93;17.57;;;;;;;;;;763630;182;918752;-78
2021/07/17 04:11:33;;;;;;;23.30;19.17;;;;;;;;;;760955;183;919123;-75
2021/07/17 04:13:58;;;;;;;24.83;19.00;;;;;;;;;;765308;183;1037265;-77
2021/07/17 04:16:24;;;;;;;25.50;20.20;;;;;;;;;;763058;183;919258;-77
2021/07/17 04:18:50;;;;;;;27.00;21.07;;;;;;;;;;763560;183;918492;-77
2021/07/17 04:21:16;;;;;;;24.67;20.50;;;;;;;;;;766313;183;816284;-75
2021/07/17 04:23:42;;;;;;;27.77;18.73;;;;;;;;;;760459;183;921909;-75
2021/07/17 04:26:07;;;;;;;28.43;20.47;;;;;;;;;;759824;183;918474;-76
2021/07/17 04:28:34;;;;;;;25.93;19.33;;;;;;;;;;762612;183;816351;-75
2021/07/17 04:30:59;;;;;;;27.37;19.60;;;;;;;;;;756979;183;814939;-75
2021/07/17 04:33:25;;;;;;;25.73;19.17;;;;;;;;;;760041;183;919222;-78
2021/07/17 04:35:51;;;;;;;31.73;19.23;;;;;;;;;;759487;183;918562;-74
2021/07/17 04:38:17;;;;;;;31.83;18.97;;;;;;;;;;767184;183;815729;-76
2021/07/17 04:40:43;;;;;;;27.93;20.77;;;;;;;;;;759810;183;919074;-78
2021/07/17 04:43:08;;;;;;;30.60;20.70;;;;;;;;;;760258;183;918733;-80
2021/07/17 04:45:34;;;;;;;25.87;19.60;;;;;;;;;;765550;183;917118;-79
2021/07/17 04:48:04;;;;;;;24.23;18.93;;;;;;;;;;761784;183;919117;-80
2021/07/17 04:50:26;;;;;;;31.13;18.17;;;;;;;;;;760123;183;920388;-76
2021/07/17 04:52:52;;;;;;;23.33;18.40;;;;;;;;;;766408;183;919067;-75
2021/07/17 04:55:18;;;;;;;39.40;21.93;;;;;;;;;;761566;183;916542;-78
2021/07/17 04:57:43;;;;;;;36.40;20.30;;;;;;;;;;761539;183;919034;-76
2021/07/17 05:00:10;;;;;;;27.87;18.67;;;;;;;;;;762103;183;919453;-80
2021/07/17 05:02:41;;;;;;;29.03;19.17;;;;;;;;;;759824;183;918855;-78
2021/07/17 05:05:08;;;;;;;25.95;19.60;;;;;;;;;;763245;182;918727;-76
2021/07/17 05:07:33;;;;;;;25.50;17.60;;;;;;;;;;763264;182;927702;-78
2021/07/17 05:09:59;;;;;;;26.53;18.60;;;;;;;;;;765920;182;918866;-77
2021/07/17 05:12:25;;;;;;;23.93;17.63;;;;;;;;;;761960;180;917614;-77
2021/07/17 05:14:51;;;;;;;29.70;18.43;;;;;;;;;;760614;182;816257;-79
2021/07/17 05:17:17;;;;;;;28.83;18.45;;;;;;;;;;760289;182;899236;-80
2021/07/17 05:19:43;;;;;;;31.73;19.30;;;;;;;;;;760810;183;817279;-75
2021/07/17 05:22:08;;;;;;;25.23;18.57;;;;;;;;;;760577;183;892418;-80
2021/07/17 05:24:34;;;;;;;22.43;17.30;;;;;;;;;;760058;183;917484;-78
2021/07/17 05:27:00;;;;;;;26.70;17.40;;;;;;;;;;765694;183;1050257;-80
2021/07/17 05:29:26;;;;;;;26.73;18.93;;;;;;;;;;763258;183;919565;-80
2021/07/17 05:31:52;;;;;;;21.07;15.90;;;;;;;;;;764341;183;882448;-76
2021/07/17 05:34:18;;;;;;;22.20;16.77;;;;;;;;;;766488;183;919685;-76
2021/07/17 05:36:43;;;;;;;21.70;17.57;;;;;;;;;;761421;183;816875;-77
2021/07/17 05:39:09;;;;;;;24.67;15.32;;;;;;;;;;757646;183;920507;-76
2021/07/17 05:41:35;;;;;;;26.97;17.70;;;;;;;;;;764334;184;919175;-78
2021/07/17 05:44:01;;;;;;;21.43;15.50;;;;;;;;;;760795;183;915633;-82
2021/07/17 05:46:27;;;;;;;26.20;17.40;;;;;;;;;;758774;181;919467;-79
2021/07/17 05:48:53;;;;;;;29.80;17.33;;;;;;;;;;762005;183;919456;-80
2021/07/17 05:51:19;;;;;;;29.30;17.50;;;;;;;;;;765597;183;918022;-78
2021/07/17 05:53:45;;;;;;;24.90;15.63;;;;;;;;;;762066;183;918022;-76
2021/07/17 05:56:10;;;;;;;20.60;17.07;;;;;;;;;;761421;183;826949;-83
2021/07/17 05:58:36;;;;;;;28.27;17.13;;;;;;;;;;765701;183;825431;-74
2021/07/17 06:01:02;;;;;;;22.30;16.37;;;;;;;;;;763275;183;919584;-77
2021/07/17 06:03:28;;;;;;;26.80;16.52;;;;;;;;;;760539;183;918992;-79
2021/07/17 06:05:54;;;;;;;22.47;16.40;;;;;;;;;;764727;184;919317;-80
2021/07/17 06:08:20;;;;;;;31.70;19.03;;;;;;;;;;760280;183;918592;-81
2021/07/17 06:10:46;;;;;;;27.07;18.90;;;;;;;;;;759648;183;917961;-77
2021/07/17 06:13:12;;;;;;;27.73;19.30;;;;;;;;;;760967;183;915565;-73
2021/07/17 06:15:37;;;;;;;24.43;17.70;;;;;;;;;;768793;181;844144;-77
2021/07/17 06:18:03;;;;;;;27.30;19.70;;;;;;;;;;762211;182;920197;-76
2021/07/17 06:20:29;;;;;;;31.07;20.20;;;;;;;;;;760156;181;922600;-75
2021/07/17 06:22:55;;;;;;;36.27;18.73;;;;;;;;;;769546;182;889419;-73
2021/07/17 06:25:21;;;;;;;26.70;18.70;;;;;;;;;;763306;182;938280;-74
2021/07/17 06:27:47;;;;;;;29.87;19.10;;;;;;;;;;761553;182;919342;-77
2021/07/17 06:30:13;;;;;;;23.87;17.77;;;;;;;;;;769417;182;643169;-76
2021/07/17 06:32:39;;;;;;;23.93;18.47;;;;;;;;;;762195;182;921826;-76
2021/07/17 06:35:05;;;;;;;24.50;17.80;;;;;;;;;;764088;183;819941;-76
2021/07/17 06:37:31;;;;;;;23.80;17.97;;;;;;;;;;767659;183;785929;-82
2021/07/17 06:39:57;;;;;;;22.73;18.10;;;;;;;;;;764880;183;622310;-76
2021/07/17 06:42:22;;;;;;;25.17;17.50;;;;;;;;;;761881;183;817504;-75
2021/07/17 06:44:48;;;;;;;30.23;19.30;;;;;;;;;;762551;183;817624;-77
2021/07/17 06:47:14;;;;;;;23.17;18.30;;;;;;;;;;767988;183;618463;-81
2021/07/17 06:49:40;;;;;;;22.53;16.30;;;;;;;;;;762227;183;919395;-77
2021/07/17 06:52:06;;;;;;;24.27;17.97;;;;;;;;;;762346;183;808276;-74
2021/07/17 06:54:32;;;;;;;28.53;19.03;;;;;;;;;;766383;183;816343;-73
2021/07/17 06:56:58;;;;;;;27.60;19.00;;;;;;;;;;762098;183;920354;-77
2021/07/17 06:59:23;;;;;;;23.27;18.80;;;;;;;;;;760666;183;905555;-75
2021/07/17 07:01:49;;;;;;;26.27;19.50;;;;;;;;;;764857;183;918015;-74
2021/07/17 07:04:15;;;;;;;21.67;17.77;;;;;;;;;;761449;183;919915;-75
2021/07/17 07:06:41;;;;;;;24.50;18.07;;;;;;;;;;761485;183;810573;-79
2021/07/17 07:09:07;;;;;;;27.90;19.73;;;;;;;;;;763956;183;921560;-74
2021/07/17 07:11:33;;;;;;;25.27;18.10;;;;;;;;;;762149;183;915739;-80
2021/07/17 07:13:59;;;;;;;27.97;20.90;;;;;;;;;;760511;183;916208;-77
2021/07/17 07:16:25;;;;;;;25.10;18.50;;;;;;;;;;761121;183;922608;-77
2021/07/17 07:18:51;;;;;;;23.43;18.77;;;;;;;;;;766711;183;804185;-75
2021/07/17 07:21:16;;;;;;;25.27;17.50;;;;;;;;;;763075;183;900513;-78
2021/07/17 07:23:42;;;;;;;24.97;19.67;;;;;;;;;;770015;183;899671;-80
2021/07/17 07:26:08;;;;;;;26.20;19.33;;;;;;;;;;765322;183;924862;-73
2021/07/17 07:28:34;;;;;;;29.20;20.20;;;;;;;;;;760765;182;1201420;-72
2021/07/17 07:31:00;;;;;;;25.70;20.50;;;;;;;;;;764002;182;1010518;-75
2021/07/17 07:33:26;;;;;;;27.03;19.30;;;;;;;;;;769040;182;723289;-74
2021/07/17 07:35:51;;;;;;;30.00;18.40;;;;;;;;;;762091;182;918663;-72
2021/07/17 07:38:17;;;;;;;27.07;17.40;;;;;;;;;;760128;182;921893;-73
2021/07/17 07:40:43;;;;;;;22.70;17.23;;;;;;;;;;760874;182;920770;-72
2021/07/17 07:43:10;;;;;;;28.83;19.40;;;;;;;;;;764657;182;1234407;-73
2021/07/17 07:45:35;;;;;;;31.20;17.77;;;;;;;;;;760978;183;940638;-76
2021/07/17 07:48:01;;;;;;;26.33;16.57;;;;;;;;;;760434;183;905564;-75
2021/07/17 07:50:27;;;;;;;21.80;14.27;;;;;;;;;;765788;183;905972;-71
2021/07/17 07:52:52;;;;;;;26.20;16.83;;;;;;;;;;761085;182;902931;-73
2021/07/17 07:55:18;;;;;;;20.30;16.33;;;;;;;;;;760636;183;919144;-76
2021/07/17 07:57:44;;;;;;;22.63;14.90;;;;;;;;;;766199;183;903877;-78
2021/07/17 08:00:10;;;;;;;24.10;15.37;;;;;;;;;;760354;183;915218;-72
2021/07/17 08:02:36;;;;;;;20.47;14.93;;;;;;;;;;758582;183;1021869;-75
2021/07/17 08:05:02;;;;;;;21.93;13.00;;;;;;;;;;759772;183;951244;-73
2021/07/17 08:07:28;;;;;;;19.27;14.80;;;;;;;;;;763581;183;919046;-75
2021/07/17 08:09:54;;;;;;;18.60;14.20;;;;;;;;;;758861;183;919218;-74
2021/07/17 08:12:20;;;;;;;21.30;16.37;;;;;;;;;;758969;183;918439;-76
2021/07/17 08:14:45;;;;;;;19.57;13.70;;;;;;;;;;757892;184;887873;-74
2021/07/17 08:17:11;;;;;;;18.70;14.43;;;;;;;;;;761238;183;919492;-72
2021/07/17 08:19:37;;;;;;;22.33;14.67;;;;;;;;;;760402;184;917786;-75
2021/07/17 08:22:03;;;;;;;24.00;14.70;;;;;;;;;;766181;179;918915;-75
2021/07/17 08:24:29;;;;;;;20.83;15.83;;;;;;;;;;762556;183;917572;-76
2021/07/17 08:26:54;;;;;;;15.73;13.20;;;;;;;;;;763149;183;852853;-76
2021/07/17 08:29:20;;;;;;;17.50;14.20;;;;;;;;;;766098;183;918185;-76
2021/07/17 08:31:46;;;;;;;20.33;15.43;;;;;;;;;;761458;183;823109;-81
2021/07/17 08:34:12;;;;;;;20.15;13.75;;;;;;;;;;760669;183;1098080;-72
2021/07/17 08:36:38;;;;;;;18.30;14.43;;;;;;;;;;764021;183;636708;-74
2021/07/17 08:39:04;;;;;;;17.33;14.87;;;;;;;;;;768042;181;917701;-73
2021/07/17 08:41:30;;;;;;;21.13;15.27;;;;;;;;;;760151;183;929163;-73
2021/07/17 08:43:56;;;;;;;17.20;14.38;;;;;;;;;;762643;182;918839;-77
2021/07/17 08:46:22;;;;;;;18.83;15.97;;;;;;;;;;768556;182;920074;-77
2021/07/17 08:48:49;;;;;;;22.57;15.60;;;;;;;;;;760157;182;919146;-75
2021/07/17 08:51:13;;;;;;;21.03;14.63;;;;;;;;;;758947;180;940033;-73
2021/07/17 08:53:39;;;;;;;19.40;14.60;;;;;;;;;;769508;182;919590;-71
2021/07/17 08:56:05;;;;;;;19.50;14.83;;;;;;;;;;761075;182;816628;-74
2021/07/17 08:58:31;;;;;;;15.57;13.63;;;;;;;;;;760023;183;918085;-77
2021/07/17 09:00:59;;;;;;;20.67;13.40;;;;;;;;;;763155;183;972897;-73
2021/07/17 09:03:23;;;;;;;19.63;14.50;;;;;;;;;;761167;183;917015;-74
2021/07/17 09:05:49;;;;;;;29.83;15.10;;;;;;;;;;760038;183;919126;-71
2021/07/17 09:08:15;;;;;;;18.83;14.30;;;;;;;;;;759922;183;917247;-75
2021/07/17 09:10:40;;;;;;;16.40;14.43;;;;;;;;;;765633;183;915376;-74
2021/07/17 09:13:08;;;;;;;20.30;13.50;;;;;;;;;;760288;183;919235;-75
2021/07/17 09:15:34;;;;;;;19.80;15.10;;;;;;;;;;759923;183;919315;-74
2021/07/17 09:18:00;;;;;;;20.17;14.13;;;;;;;;;;765286;183;816324;-76
2021/07/17 09:20:26;;;;;;;23.27;17.33;;;;;;;;;;761589;183;918283;-75
2021/07/17 09:22:55;;;;;;;22.37;14.00;;;;;;;;;;759756;183;914061;-72
2021/07/17 09:25:21;;;;;;;23.17;15.10;;;;;;;;;;759875;180;919574;-75
2021/07/17 09:27:47;;;;;;;15.63;13.43;;;;;;;;;;768043;183;918417;-73
2021/07/17 09:30:19;;;;;;;26.20;13.90;;;;;;;;;;759989;183;919427;-70
2021/07/17 09:32:45;;;;;;;22.47;14.47;;;;;;;;;;761544;183;827120;-75
2021/07/17 09:35:11;;;;;;;15.70;13.87;;;;;;;;;;763645;183;919041;-76
2021/07/17 09:37:37;;;;;;;21.80;14.77;;;;;;;;;;760019;183;917981;-75
2021/07/17 09:40:03;;;;;;;24.23;14.10;;;;;;;;;;760100;183;932971;-72
2021/07/17 09:42:29;;;;;;;16.87;14.07;;;;;;;;;;759789;183;918574;-71
2021/07/17 09:44:55;;;;;;;15.67;13.40;;;;;;;;;;762562;183;917857;-77
2021/07/17 09:47:21;;;;;;;23.77;14.47;;;;;;;;;;757887;183;919350;-71
2021/07/17 09:49:46;;;;;;;21.87;13.70;;;;;;;;;;763359;180;919543;-72
2021/07/17 09:52:16;;;;;;;21.87;14.67;;;;;;;;;;766558;182;918820;-70
2021/07/17 09:54:41;;;;;;;17.23;13.37;;;;;;;;;;763745;182;917816;-74
2021/07/17 09:57:07;;;;;;;17.27;13.80;;;;;;;;;;759196;181;918458;-71
2021/07/17 09:59:32;;;;;;;15.50;12.20;;;;;;;;;;766598;182;919466;-73
2021/07/17 10:01:58;;;;;;;18.37;13.03;;;;;;;;;;761885;183;919236;-72
2021/07/17 10:04:24;;;;;;;20.27;14.70;;;;;;;;;;761563;182;916035;-72
2021/07/17 10:07:05;;;;;;;20.13;14.40;;;;;;;;;;760612;182;919080;-73
2021/07/17 10:09:32;;;;;;;18.30;12.93;;;;;;;;;;754848;183;975869;-73
2021/07/17 10:12:00;;;;;;;19.73;13.20;;;;;;;;;;763723;183;884422;-73
2021/07/17 10:14:26;;;;;;;17.37;13.47;;;;;;;;;;761905;183;918651;-71
2021/07/17 10:16:54;;;;;;;16.23;12.37;;;;;;;;;;763202;183;918589;-72
2021/07/17 10:19:18;;;;;;;16.30;12.60;;;;;;;;;;766118;182;920388;-72
2021/07/17 10:21:44;;;;;;;15.13;11.43;;;;;;;;;;762923;183;921734;-73
2021/07/17 10:24:10;;;;;;;16.08;12.23;;;;;;;;;;763029;183;918723;-74
2021/07/17 10:26:36;;;;;;;15.07;12.37;;;;;;;;;;766161;183;919579;-72
2021/07/17 10:29:02;;;;;;;19.73;11.63;;;;;;;;;;760568;183;918255;-75
2021/07/17 10:31:28;;;;;;;14.93;13.07;;;;;;;;;;760758;183;920066;-76
2021/07/17 10:33:54;;;;;;;16.83;11.87;;;;;;;;;;761473;183;918675;-75
2021/07/17 10:36:20;;;;;;;18.03;12.40;;;;;;;;;;762892;181;918356;-76
2021/07/17 10:38:45;;;;;;;19.67;13.20;;;;;;;;;;760427;183;919190;-73
2021/07/17 10:41:12;;;;;;;15.57;11.37;;;;;;;;;;760921;183;919263;-77
2021/07/17 10:43:38;;;;;;;18.10;13.43;;;;;;;;;;770969;183;924429;-72
2021/07/17 10:46:04;;;;;;;16.73;12.43;;;;;;;;;;759363;183;918923;-70
2021/07/17 10:48:30;;;;;;;15.37;11.90;;;;;;;;;;759933;183;936147;-78
2021/07/17 10:50:55;;;;;;;20.23;13.07;;;;;;;;;;766642;184;919229;-73
2021/07/17 10:53:27;;;;;;;16.70;13.53;;;;;;;;;;759498;183;930785;-73
2021/07/17 10:55:53;;;;;;;15.70;12.30;;;;;;;;;;760107;181;918573;-73
2021/07/17 10:58:38;;;;;;;19.47;12.23;;;;;;;;;;763927;183;918835;-74
2021/07/17 11:01:03;;;;;;;17.07;12.70;;;;;;;;;;759504;182;918674;-73
2021/07/17 11:03:30;;;;;;;16.70;12.37;;;;;;;;;;767667;182;914062;-75
2021/07/17 11:05:55;;;;;;;15.53;13.57;;;;;;;;;;761256;182;919205;-73
2021/07/17 11:08:36;;;;;;;17.13;13.93;;;;;;;;;;760113;182;918886;-73
2021/07/17 11:11:02;;;;;;;17.90;12.80;;;;;;;;;;761302;182;920480;-75
2021/07/17 11:13:30;;;;;;;19.10;13.90;;;;;;;;;;758861;183;919184;-75
2021/07/17 11:15:56;;;;;;;18.03;14.17;;;;;;;;;;763602;182;912666;-74
2021/07/17 11:18:22;;;;;;;21.77;13.03;;;;;;;;;;763351;182;890763;-74
2021/07/17 11:20:48;;;;;;;20.30;14.95;;;;;;;;;;760231;183;918875;-72
2021/07/17 11:23:16;;;;;;;20.27;16.03;;;;;;;;;;765269;183;918995;-73
2021/07/17 11:25:47;;;;;;;18.03;15.90;;;;;;;;;;760031;183;919003;-74
2021/07/17 11:28:13;;;;;;;17.67;15.77;;;;;;;;;;760239;183;919139;-76
2021/07/17 11:30:39;;;;;;;20.80;14.50;;;;;;;;;;766949;183;919022;-76
2021/07/17 11:33:20;;;;;;;17.97;14.83;;;;;;;;;;763384;183;816065;-73
2021/07/17 11:35:48;;;;;;;19.85;14.90;;;;;;;;;;762378;183;919050;-71
2021/07/17 11:38:13;;;;;;;17.13;12.90;;;;;;;;;;758530;183;920858;-74
2021/07/17 11:40:38;;;;;;;23.77;15.43;;;;;;;;;;758248;183;919885;-74
2021/07/17 11:43:04;;;;;;;18.83;14.60;;;;;;;;;;759191;183;919645;-72
2021/07/17 11:45:30;;;;;;;22.37;15.37;;;;;;;;;;758801;183;920324;-74
2021/07/17 11:47:56;;;;;;;14.83;12.90;;;;;;;;;;762975;183;920768;-74
2021/07/17 11:50:22;;;;;;;21.13;15.60;;;;;;;;;;763216;183;917731;-76
2021/07/17 11:52:47;;;;;;;23.23;14.27;;;;;;;;;;760680;184;918254;-75
2021/07/17 11:55:13;;;;;;;19.03;14.60;;;;;;;;;;761161;182;991417;-73
2021/07/17 11:57:39;;;;;;;20.17;13.10;;;;;;;;;;765185;183;927269;-71
2021/07/17 12:00:08;;;;;;;22.03;15.17;;;;;;;;;;759226;183;919644;-74
2021/07/17 12:02:34;;;;;;;22.63;15.87;;;;;;;;;;762672;183;886829;-73
2021/07/17 12:05:03;;;;;;;17.60;13.30;;;;;;;;;;760180;183;916160;-74
2021/07/17 12:07:29;;;;;;;23.07;15.60;;;;;;;;;;760429;183;916638;-71
2021/07/17 12:09:56;;;;;;;16.37;14.00;;;;;;;;;;763694;183;915909;-70
2021/07/17 12:12:27;;;;;;;16.90;14.30;;;;;;;;;;758644;183;921538;-73
2021/07/17 12:14:58;;;;;;;20.73;13.30;;;;;;;;;;766478;182;923296;-74
2021/07/17 12:17:24;;;;;;;21.27;15.23;;;;;;;;;;763982;182;883878;-75
2021/07/17 12:19:56;;;;;;;19.07;14.37;;;;;;;;;;760985;182;923311;-72
2021/07/17 12:22:22;;;;;;;22.50;14.67;;;;;;;;;;760889;182;919522;-71
2021/07/17 12:24:47;;;;;;;21.50;15.27;;;;;;;;;;765223;182;919079;-75
2021/07/17 12:27:13;;;;;;;16.03;14.20;;;;;;;;;;761720;183;917888;-73
2021/07/17 12:29:39;;;;;;;16.90;15.00;;;;;;;;;;760621;182;921697;-75
2021/07/17 12:32:05;;;;;;;17.87;14.13;;;;;;;;;;759441;183;924748;-74
2021/07/17 12:34:31;;;;;;;14.80;13.20;;;;;;;;;;764883;183;1022131;-74
2021/07/17 12:36:57;;;;;;;19.47;14.20;;;;;;;;;;759189;183;919374;-71
2021/07/17 12:39:23;;;;;;;18.00;13.70;;;;;;;;;;760707;183;918669;-70
2021/07/17 12:41:49;;;;;;;16.20;13.70;;;;;;;;;;764081;181;1020427;-75
2021/07/17 12:44:15;;;;;;;20.00;13.93;;;;;;;;;;760474;183;918531;-73
2021/07/17 12:46:43;;;;;;;22.43;15.53;;;;;;;;;;759898;182;1022176;-73
2021/07/17 12:49:10;;;;;;;17.10;13.47;;;;;;;;;;765381;183;918040;-72
2021/07/17 12:51:35;;;;;;;17.40;15.30;;;;;;;;;;763816;183;919660;-71
2021/07/17 12:54:01;;;;;;;19.17;13.17;;;;;;;;;;757919;183;927195;-72
2021/07/17 12:56:29;;;;;;;16.50;13.27;;;;;;;;;;759672;183;918380;-71
2021/07/17 12:58:55;;;;;;;21.80;13.50;;;;;;;;;;764434;183;918591;-69
2021/07/17 13:01:21;;;;;;;16.80;13.50;;;;;;;;;;759880;183;919191;-72
2021/07/17 13:03:47;;;;;;;28.40;14.43;;;;;;;;;;760068;183;918940;-73
2021/07/17 13:06:14;;;;;;;23.70;14.57;;;;;;;;;;767884;183;919112;-70
2021/07/17 13:08:38;;;;;;;22.77;15.17;;;;;;;;;;761720;183;956995;-71
2021/07/17 13:11:05;;;;;;;17.23;13.83;;;;;;;;;;760402;183;918820;-70
2021/07/17 13:13:31;;;;;;;15.43;13.65;;;;;;;;;;764806;183;919326;-69
2021/07/17 13:15:57;;;;;;;17.47;12.97;;;;;;;;;;757807;183;918693;-70
2021/07/17 13:18:23;;;;;;;18.67;13.10;;;;;;;;;;757408;183;1022043;-73
2021/07/17 13:20:55;;;;;;;18.03;12.07;;;;;;;;;;757906;183;925559;-72
2021/07/17 13:23:21;;;;;;;19.73;13.30;;;;;;;;;;764127;183;919098;-74
2021/07/17 13:25:47;;;;;;;18.77;14.17;;;;;;;;;;762183;182;919396;-73
2021/07/17 13:28:13;;;;;;;16.00;13.20;;;;;;;;;;763836;182;1020865;-74
2021/07/17 13:30:41;;;;;;;18.45;13.25;;;;;;;;;;764029;182;919054;-71
2021/07/17 13:33:05;;;;;;;16.60;12.37;;;;;;;;;;759074;182;918122;-70
2021/07/17 13:35:31;;;;;;;18.00;13.53;;;;;;;;;;761062;182;921594;-71
2021/07/17 13:37:59;;;;;;;21.60;12.50;;;;;;;;;;760502;182;982628;-71
2021/07/17 13:40:25;;;;;;;21.20;13.37;;;;;;;;;;766020;182;1020530;-73
2021/07/17 13:42:51;;;;;;;20.23;12.27;;;;;;;;;;761219;182;918429;-71
2021/07/17 13:45:17;;;;;;;23.43;14.97;;;;;;;;;;761968;183;917678;-72
2021/07/17 13:47:43;;;;;;;18.53;13.70;;;;;;;;;;763254;183;919026;-71
2021/07/17 13:50:15;;;;;;;20.30;14.70;;;;;;;;;;760427;183;919561;-72
2021/07/17 13:52:41;;;;;;;18.60;13.95;;;;;;;;;;759241;183;1102809;-71
2021/07/17 13:55:07;;;;;;;21.73;14.07;;;;;;;;;;757671;183;921292;-71
2021/07/17 13:57:35;;;;;;;22.27;13.87;;;;;;;;;;766785;183;918278;-70